< < Back
Terminal Aerodrome Forecast


Current Version              Previous Versions:   1  2  3  4  5  6  7  8  9  

Terminal Aerodrome Forecast

860
FTUS44 KBMX 191700
TAFANB
TAF
KANB 191724Z 1918/2018 VRB03KT P6SM SKC=

Latest METAR

810
SAUS70 KWBC 202300 RRA
MTRANB
METAR KANB 202253Z AUTO 21004KT 10SM CLR 19/11 A3000 RMK AO2 SLP159
T01890106


USA.gov is the U.S. government's official web portal to all federal, state and local government web resources and services.